createdAt,value
2023-03-19T00:00:12.460Z,14.20
2023-03-19T00:02:51.335Z,14.45
2023-03-19T00:05:42.229Z,14.80
2023-03-19T00:08:18.668Z,13.63
2023-03-19T00:11:04.662Z,13.45
2023-03-19T00:13:41.148Z,13.95
2023-03-19T00:16:29.979Z,13.98
2023-03-19T00:19:11.141Z,13.25
2023-03-19T00:21:39.750Z,12.43
2023-03-19T00:24:17.806Z,12.75
2023-03-19T00:29:44.410Z,12.07
2023-03-19T00:32:23.186Z,11.02
2023-03-19T00:35:06.728Z,10.60
2023-03-19T00:37:59.006Z,9.90
2023-03-19T00:40:38.487Z,9.52
2023-03-19T00:43:19.344Z,8.32
2023-03-19T00:46:03.851Z,7.80
2023-03-19T00:48:42.116Z,6.95
2023-03-19T00:51:34.105Z,7.20
2023-03-19T00:54:21.944Z,5.90
2023-03-19T00:56:53.827Z,5.70
2023-03-19T00:59:39.134Z,5.38
2023-03-19T01:02:19.437Z,4.78
2023-03-19T01:05:12.364Z,4.80
2023-03-19T01:07:54.918Z,3.97
2023-03-19T01:10:41.976Z,3.97
2023-03-19T01:13:15.828Z,3.97
2023-03-19T01:15:58.819Z,3.80
2023-03-19T01:18:28.460Z,3.83
2023-03-19T01:21:13.277Z,3.80
2023-03-19T01:23:46.174Z,3.70
2023-03-19T01:26:30.109Z,3.58
2023-03-19T01:29:10.696Z,3.45
2023-03-19T01:31:52.274Z,3.50
2023-03-19T01:34:29.701Z,3.15
2023-03-19T01:37:19.579Z,3.13
2023-03-19T01:40:29.271Z,3.10
2023-03-19T01:43:39.162Z,3.60
2023-03-19T01:46:19.297Z,3.10
2023-03-19T01:49:13.488Z,3.10
2023-03-19T01:51:46.192Z,3.35
2023-03-19T01:58:05.239Z,3.15
2023-03-19T02:00:49.569Z,3.40
2023-03-19T02:07:08.863Z,2.80
2023-03-19T02:09:48.118Z,3.47
2023-03-19T02:12:32.995Z,3.13
2023-03-19T02:15:22.130Z,2.95
2023-03-19T02:17:53.889Z,2.92
2023-03-19T02:21:01.455Z,3.05
2023-03-19T02:24:03.855Z,2.97
2023-03-19T02:26:46.043Z,2.92
2023-03-19T02:29:18.346Z,3.17
2023-03-19T02:32:03.266Z,2.92
2023-03-19T02:38:02.906Z,2.63
2023-03-19T02:40:56.377Z,3.05
2023-03-19T02:46:29.240Z,2.85
2023-03-19T02:49:12.535Z,2.90
2023-03-19T02:55:00.112Z,3.15
2023-03-19T02:57:47.969Z,2.97
2023-03-19T03:00:35.453Z,2.90
2023-03-19T03:03:31.542Z,2.72
2023-03-19T03:06:30.545Z,2.80
2023-03-19T03:09:07.869Z,2.92
2023-03-19T03:11:40.600Z,2.97
2023-03-19T03:14:29.005Z,3.03
2023-03-19T03:17:06.450Z,3.00
2023-03-19T03:19:42.293Z,2.72
2023-03-19T03:22:22.551Z,3.17
2023-03-19T03:25:15.529Z,3.08
2023-03-19T03:28:06.665Z,3.20
2023-03-19T03:33:38.298Z,2.75
2023-03-19T03:36:27.530Z,3.33
2023-03-19T03:42:23.531Z,3.20
2023-03-19T03:48:03.660Z,3.22
2023-03-19T03:50:42.721Z,3.15
2023-03-19T03:53:22.724Z,3.33
2023-03-19T03:56:09.722Z,3.30
2023-03-19T03:58:50.203Z,3.50
2023-03-19T04:01:30.716Z,3.38
2023-03-19T04:04:11.487Z,3.45
2023-03-19T04:06:53.614Z,4.07
2023-03-19T04:09:36.408Z,3.72
2023-03-19T04:12:45.870Z,3.67
2023-03-19T04:15:25.908Z,3.75
2023-03-19T04:18:02.944Z,4.07
2023-03-19T04:23:28.121Z,4.32
2023-03-19T04:26:25.535Z,4.30
2023-03-19T04:28:59.803Z,4.50
2023-03-19T04:31:45.459Z,4.53
2023-03-19T04:34:17.385Z,4.63
2023-03-19T04:37:00.775Z,5.18
2023-03-19T04:39:38.222Z,4.60
2023-03-19T04:42:33.899Z,4.70
2023-03-19T04:45:17.547Z,5.30
2023-03-19T04:47:52.704Z,4.93
2023-03-19T04:50:23.922Z,5.38
2023-03-19T04:53:01.742Z,5.50
2023-03-19T04:55:29.087Z,5.85
2023-03-19T04:58:06.757Z,5.97
2023-03-19T05:00:40.652Z,5.95
2023-03-19T05:03:14.662Z,6.75
2023-03-19T05:05:41.463Z,6.85
2023-03-19T05:08:15.580Z,6.55
2023-03-19T05:10:48.482Z,6.80
2023-03-19T05:13:15.205Z,7.07
2023-03-19T05:15:53.260Z,7.45
2023-03-19T05:18:23.177Z,7.38
2023-03-19T05:20:56.693Z,8.10
2023-03-19T05:23:24.179Z,7.82
2023-03-19T05:25:58.615Z,7.47
2023-03-19T05:28:25.630Z,8.13
2023-03-19T05:31:01.699Z,8.38
2023-03-19T05:33:28.813Z,8.48
2023-03-19T05:36:02.701Z,8.95
2023-03-19T05:38:35.656Z,7.88
2023-03-19T05:41:15.582Z,9.27
2023-03-19T05:43:49.608Z,8.85
2023-03-19T05:46:16.668Z,9.20
2023-03-19T05:48:53.296Z,8.82
2023-03-19T05:51:26.744Z,9.25
2023-03-19T05:54:00.602Z,9.35
2023-03-19T05:56:28.183Z,9.60
2023-03-19T05:59:01.603Z,9.57
2023-03-19T06:01:38.350Z,9.50
2023-03-19T06:04:11.828Z,10.15
2023-03-19T06:06:38.885Z,8.93
2023-03-19T06:09:12.583Z,9.80
2023-03-19T06:11:47.670Z,9.80
2023-03-19T06:14:21.614Z,9.45
2023-03-19T06:16:49.050Z,9.77
2023-03-19T06:19:25.294Z,9.48
2023-03-19T06:21:52.804Z,9.63
2023-03-19T06:24:26.557Z,9.32
2023-03-19T06:27:09.462Z,9.48
2023-03-19T06:29:43.757Z,9.95
2023-03-19T06:32:17.646Z,9.85
2023-03-19T06:34:51.746Z,9.68
2023-03-19T06:37:19.704Z,9.68
2023-03-19T06:40:01.613Z,10.35
2023-03-19T06:42:28.651Z,10.20
2023-03-19T06:45:02.616Z,10.10
2023-03-19T06:47:29.788Z,9.95
2023-03-19T06:49:56.816Z,9.88
2023-03-19T06:52:47.702Z,9.55
2023-03-19T06:55:21.204Z,9.75
2023-03-19T06:57:58.824Z,9.00
2023-03-19T07:00:25.970Z,9.18
2023-03-19T07:02:59.729Z,10.05
2023-03-19T07:05:27.056Z,9.15
2023-03-19T07:07:54.203Z,9.63
2023-03-19T07:10:28.890Z,9.80
2023-03-19T07:12:56.292Z,10.10
2023-03-19T07:15:30.777Z,10.00
2023-03-19T07:18:04.839Z,10.23
2023-03-19T07:20:32.345Z,10.45
2023-03-19T07:23:06.721Z,9.98
2023-03-19T07:25:40.873Z,10.32
2023-03-19T07:28:15.712Z,10.18
2023-03-19T07:30:49.673Z,10.48
2023-03-19T07:33:23.718Z,10.57
2023-03-19T07:35:54.099Z,10.45
2023-03-19T07:38:28.660Z,10.38
2023-03-19T07:41:08.133Z,11.10
2023-03-19T07:43:41.776Z,10.63
2023-03-19T07:46:20.069Z,11.18
2023-03-19T07:48:58.802Z,11.52
2023-03-19T07:51:33.744Z,11.88
2023-03-19T07:54:14.987Z,10.63
2023-03-19T07:56:42.553Z,11.45
2023-03-19T07:59:16.616Z,11.32
2023-03-19T08:01:50.934Z,11.57
2023-03-19T08:04:21.208Z,12.00
2023-03-19T08:06:54.796Z,12.57
2023-03-19T08:09:25.423Z,12.10
2023-03-19T08:11:59.900Z,12.00
2023-03-19T08:14:27.404Z,12.95
2023-03-19T08:17:00.939Z,12.52
2023-03-19T08:19:28.466Z,10.88
2023-03-19T08:22:08.848Z,11.57
2023-03-19T08:24:36.832Z,11.80
2023-03-19T08:27:10.705Z,9.93
2023-03-19T08:29:40.865Z,10.73
2023-03-19T08:32:09.091Z,11.60
2023-03-19T08:34:49.454Z,10.55
2023-03-19T08:37:23.844Z,10.98
2023-03-19T08:40:15.780Z,10.45
2023-03-19T08:42:45.554Z,10.40
2023-03-19T08:45:24.548Z,10.32
2023-03-19T08:47:52.191Z,10.75
2023-03-19T08:50:29.020Z,10.15
2023-03-19T08:53:00.010Z,9.88
2023-03-19T08:55:42.621Z,9.65
2023-03-19T08:58:16.376Z,10.63
2023-03-19T09:00:53.021Z,10.07
2023-03-19T09:03:22.357Z,9.93
2023-03-19T09:06:01.187Z,10.60
2023-03-19T09:08:31.757Z,10.68
2023-03-19T09:11:26.603Z,10.18
2023-03-19T09:14:02.215Z,9.68
2023-03-19T09:16:42.824Z,10.25
2023-03-19T09:19:20.824Z,9.30
2023-03-19T09:21:51.345Z,9.45
2023-03-19T09:24:34.052Z,8.85
2023-03-19T09:27:08.828Z,9.00
2023-03-19T09:29:42.750Z,9.25
2023-03-19T09:32:26.581Z,9.23
2023-03-19T09:35:01.058Z,8.48
2023-03-19T09:37:34.787Z,8.30
2023-03-19T09:40:09.730Z,9.13
2023-03-19T09:43:04.904Z,8.38
2023-03-19T09:45:39.057Z,8.43
2023-03-19T09:48:20.641Z,8.05
2023-03-19T09:51:00.013Z,7.43
2023-03-19T09:53:56.776Z,7.63
2023-03-19T09:56:44.895Z,6.72
2023-03-19T09:59:15.140Z,7.05
2023-03-19T10:02:42.134Z,6.45
2023-03-19T10:05:27.003Z,6.30
2023-03-19T10:08:23.642Z,5.55
2023-03-19T10:11:06.866Z,5.80
2023-03-19T10:13:58.248Z,7.20
2023-03-19T10:16:45.759Z,7.68
2023-03-19T10:19:25.125Z,6.68
2023-03-19T10:22:14.992Z,6.22
2023-03-19T10:24:58.244Z,6.70
2023-03-19T10:27:38.947Z,5.40
2023-03-19T10:30:23.390Z,6.13
2023-03-19T10:33:30.901Z,5.55
2023-03-19T10:36:19.316Z,4.85
2023-03-19T10:39:01.013Z,4.95
2023-03-19T10:42:19.662Z,4.50
2023-03-19T10:44:58.958Z,4.57
2023-03-19T10:47:34.411Z,4.32
2023-03-19T10:50:45.759Z,4.63
2023-03-19T10:53:33.592Z,4.82
2023-03-19T10:56:11.228Z,4.90
2023-03-19T10:58:49.034Z,4.47
2023-03-19T11:01:26.926Z,4.47
2023-03-19T11:04:02.939Z,3.97
2023-03-19T11:06:46.045Z,4.55
2023-03-19T11:09:47.251Z,4.20
2023-03-19T11:12:42.141Z,4.57
2023-03-19T11:15:38.295Z,4.20
2023-03-19T11:18:28.227Z,3.75
2023-03-19T11:21:34.262Z,4.60
2023-03-19T11:24:13.357Z,3.70
2023-03-19T11:26:48.239Z,3.97
2023-03-19T11:29:25.138Z,3.65
2023-03-19T11:32:27.918Z,4.00
2023-03-19T11:35:05.586Z,4.30
2023-03-19T11:38:23.556Z,3.40
2023-03-19T11:41:36.091Z,3.40
2023-03-19T11:44:21.993Z,3.50
2023-03-19T11:47:26.439Z,4.05
2023-03-19T11:50:38.035Z,4.13
2023-03-19T11:53:30.741Z,3.67
2023-03-19T11:56:47.826Z,8.98
2023-03-19T11:59:37.494Z,3.38
2023-03-19T12:02:38.461Z,3.63
2023-03-19T12:05:37.985Z,3.30
2023-03-19T12:08:43.776Z,3.30
2023-03-19T12:11:41.502Z,3.53
2023-03-19T12:14:32.904Z,3.28
2023-03-19T12:17:18.884Z,3.08
2023-03-19T12:20:27.443Z,3.00
2023-03-19T12:23:24.632Z,2.97
2023-03-19T12:26:36.410Z,2.88
2023-03-19T12:29:44.153Z,2.50
2023-03-19T12:32:44.007Z,2.80
2023-03-19T12:35:40.650Z,2.55
2023-03-19T12:38:40.149Z,3.03
2023-03-19T12:41:25.048Z,2.40
2023-03-19T12:44:10.373Z,3.10
2023-03-19T12:46:50.747Z,2.83
2023-03-19T12:49:27.818Z,2.33
2023-03-19T12:52:31.381Z,2.40
2023-03-19T12:55:26.794Z,2.60
2023-03-19T12:58:23.352Z,2.60
2023-03-19T13:01:17.420Z,2.60
2023-03-19T13:04:02.176Z,2.90
2023-03-19T13:06:37.899Z,2.67
2023-03-19T13:09:32.531Z,2.47
2023-03-19T13:12:20.377Z,2.38
2023-03-19T13:15:45.810Z,2.60
2023-03-19T13:18:37.625Z,2.63
2023-03-19T13:25:23.969Z,2.75
2023-03-19T13:27:56.792Z,2.50
2023-03-19T13:47:08.881Z,2.33
2023-03-19T13:49:35.855Z,2.20
2023-03-19T13:52:31.840Z,2.35
2023-03-19T13:55:34.741Z,1.92
2023-03-19T13:58:23.772Z,2.38
2023-03-19T14:00:58.227Z,2.40
2023-03-19T14:03:43.796Z,2.28
2023-03-19T14:06:38.982Z,2.15
2023-03-19T14:09:32.767Z,2.40
2023-03-19T14:12:18.085Z,2.22
2023-03-19T14:14:56.766Z,2.30
2023-03-19T14:17:49.534Z,3.10
2023-03-19T14:20:20.580Z,2.83
2023-03-19T14:23:15.778Z,2.58
2023-03-19T14:26:20.316Z,2.33
2023-03-19T14:29:01.800Z,2.28
2023-03-19T14:32:01.640Z,2.20
2023-03-19T14:34:46.775Z,2.42
2023-03-19T14:37:25.598Z,2.33
2023-03-19T14:40:05.817Z,2.35
2023-03-19T14:42:42.838Z,2.60
2023-03-19T14:45:46.969Z,2.30
2023-03-19T14:48:57.837Z,2.80
2023-03-19T14:51:39.850Z,2.83
2023-03-19T14:54:42.418Z,3.30
2023-03-19T14:57:22.921Z,5.63
2023-03-19T14:59:50.730Z,6.50
2023-03-19T15:02:49.852Z,6.60
2023-03-19T15:05:37.302Z,7.35
2023-03-19T15:08:13.841Z,7.28
2023-03-19T15:11:05.439Z,6.93
2023-03-19T15:13:51.834Z,8.00
2023-03-19T15:16:21.512Z,8.95
2023-03-19T15:18:55.805Z,8.25
2023-03-19T15:21:22.784Z,8.55
2023-03-19T15:23:55.836Z,8.40
2023-03-19T15:26:42.813Z,8.30
2023-03-19T15:29:12.414Z,8.98
2023-03-19T15:32:04.904Z,9.68
2023-03-19T15:34:32.674Z,10.63
2023-03-19T15:37:18.878Z,12.07
2023-03-19T15:39:55.458Z,11.68
2023-03-19T15:42:30.863Z,12.18
2023-03-19T15:45:15.855Z,14.27
2023-03-19T15:48:06.958Z,12.90
2023-03-19T15:50:37.328Z,14.43
2023-03-19T15:53:15.837Z,13.27
2023-03-19T15:55:43.232Z,13.98
2023-03-19T15:58:22.848Z,14.52
2023-03-19T16:00:53.243Z,14.60
2023-03-19T16:03:38.861Z,14.82
2023-03-19T16:06:19.850Z,13.68
2023-03-19T16:08:56.025Z,14.65
2023-03-19T16:11:44.892Z,14.18
2023-03-19T16:14:25.562Z,14.88
2023-03-19T16:17:06.922Z,13.68
2023-03-19T16:19:56.184Z,14.20
2023-03-19T16:22:40.951Z,14.82
2023-03-19T16:25:17.096Z,13.52
2023-03-19T16:27:50.998Z,14.52
2023-03-19T16:30:23.808Z,14.13
2023-03-19T16:33:11.853Z,13.18
2023-03-19T16:35:38.755Z,13.48
2023-03-19T16:38:34.920Z,13.07
2023-03-19T16:41:29.901Z,13.48
2023-03-19T16:44:17.966Z,13.90
2023-03-19T16:46:52.046Z,14.07
2023-03-19T16:49:27.899Z,13.27
2023-03-19T16:51:54.652Z,14.20
2023-03-19T16:54:31.035Z,14.98
2023-03-19T16:56:58.994Z,14.98
2023-03-19T16:59:38.075Z,16.23
2023-03-19T17:02:22.132Z,15.07
2023-03-19T17:04:55.980Z,13.95
2023-03-19T17:07:28.953Z,14.48
2023-03-19T17:10:05.000Z,12.90
2023-03-19T17:12:31.724Z,12.57
2023-03-19T17:15:04.935Z,12.15
2023-03-19T17:17:31.714Z,12.43
2023-03-19T17:20:04.993Z,12.40
2023-03-19T17:22:31.835Z,12.55
2023-03-19T17:25:04.926Z,11.73
2023-03-19T17:27:34.576Z,11.77
2023-03-19T17:30:07.933Z,11.48
2023-03-19T17:32:34.833Z,11.90
2023-03-19T17:35:07.955Z,10.75
2023-03-19T17:37:42.918Z,11.05
2023-03-19T17:40:25.932Z,10.85
2023-03-19T17:42:53.829Z,10.68
2023-03-19T17:45:41.930Z,10.80
2023-03-19T17:48:24.952Z,9.82
2023-03-19T17:50:54.619Z,10.40
2023-03-19T17:53:27.875Z,10.65
2023-03-19T17:55:54.511Z,9.95
2023-03-19T17:58:28.873Z,10.65
2023-03-19T18:00:55.760Z,10.70
2023-03-19T18:03:31.943Z,12.02
2023-03-19T18:05:58.608Z,11.45
2023-03-19T18:08:31.925Z,11.63
2023-03-19T18:10:58.550Z,11.65
2023-03-19T18:13:31.878Z,10.70
2023-03-19T18:15:58.678Z,10.15
2023-03-19T18:18:25.848Z,11.00
2023-03-19T18:21:00.665Z,11.68
2023-03-19T18:23:33.897Z,11.98
2023-03-19T18:26:00.655Z,10.38
2023-03-19T18:28:34.007Z,10.63
2023-03-19T18:31:01.206Z,11.27
2023-03-19T18:33:37.990Z,10.82
2023-03-19T18:36:10.922Z,11.55
2023-03-19T18:38:37.588Z,11.35
2023-03-19T18:41:10.927Z,10.90
2023-03-19T18:43:37.574Z,10.70
2023-03-19T18:46:13.006Z,10.90
2023-03-19T18:48:46.514Z,11.05
2023-03-19T18:51:19.938Z,11.13
2023-03-19T18:53:46.694Z,10.95
2023-03-19T18:56:29.975Z,11.35
2023-03-19T18:59:04.959Z,10.98
2023-03-19T19:01:32.645Z,12.52
2023-03-19T19:04:06.025Z,11.75
2023-03-19T19:06:46.876Z,11.05
2023-03-19T19:09:22.088Z,10.70
2023-03-19T19:11:49.275Z,10.88
2023-03-19T19:14:26.944Z,10.60
2023-03-19T19:17:00.069Z,12.65
2023-03-19T19:19:34.137Z,13.20
2023-03-19T19:22:00.879Z,12.80
2023-03-19T19:24:40.970Z,12.77
2023-03-19T19:27:21.939Z,14.13
2023-03-19T19:29:56.011Z,13.25
2023-03-19T19:32:25.059Z,12.18
2023-03-19T19:34:59.019Z,11.77
2023-03-19T19:37:25.963Z,12.45
2023-03-19T19:39:58.966Z,11.13
2023-03-19T19:42:32.938Z,11.82
2023-03-19T19:45:06.083Z,11.48
2023-03-19T19:47:41.967Z,12.30
2023-03-19T19:50:23.945Z,12.38
2023-03-19T19:52:57.000Z,13.23
2023-03-19T19:55:33.115Z,12.95
2023-03-19T19:58:08.661Z,12.77
2023-03-19T20:01:02.226Z,13.23
2023-03-19T20:03:32.318Z,14.70
2023-03-19T20:06:06.987Z,14.98
2023-03-19T20:08:33.695Z,15.45
2023-03-19T20:11:06.971Z,15.82
2023-03-19T20:13:34.867Z,15.82
2023-03-19T20:16:03.112Z,15.40
2023-03-19T20:18:39.964Z,14.45
2023-03-19T20:21:07.488Z,16.58
2023-03-19T20:23:41.060Z,15.27
2023-03-19T20:26:13.101Z,17.00
2023-03-19T20:28:46.941Z,18.30
2023-03-19T20:31:21.445Z,15.32
2023-03-19T20:33:54.920Z,18.00
2023-03-19T20:36:21.587Z,19.65
2023-03-19T20:38:48.351Z,18.27
2023-03-19T20:41:27.971Z,17.70
2023-03-19T20:43:55.963Z,19.17
2023-03-19T20:46:29.998Z,19.10
2023-03-19T20:49:10.021Z,19.10
2023-03-19T20:51:36.759Z,19.27
2023-03-19T20:54:11.993Z,19.98
2023-03-19T20:56:53.114Z,19.70
2023-03-19T20:59:19.736Z,19.67
2023-03-19T21:01:53.021Z,20.88
2023-03-19T21:04:27.976Z,20.35
2023-03-19T21:07:00.946Z,19.23
2023-03-19T21:09:34.023Z,20.23
2023-03-19T21:12:07.000Z,19.95
2023-03-19T21:14:34.891Z,21.77
2023-03-19T21:17:08.065Z,19.25
2023-03-19T21:19:40.968Z,19.80
2023-03-19T21:22:22.035Z,20.05
2023-03-19T21:24:51.021Z,21.13
2023-03-19T21:27:34.023Z,20.15
2023-03-19T21:30:00.755Z,21.17
2023-03-19T21:32:34.119Z,18.10
2023-03-19T21:35:00.974Z,20.48
2023-03-19T21:37:34.034Z,20.27
2023-03-19T21:40:00.862Z,19.33
2023-03-19T21:42:35.968Z,20.55
2023-03-19T21:45:02.678Z,20.35
2023-03-19T21:47:43.039Z,19.52
2023-03-19T21:50:24.028Z,20.20
2023-03-19T21:53:01.273Z,19.92
2023-03-19T21:55:28.322Z,20.63
2023-03-19T21:58:04.037Z,19.88
2023-03-19T22:00:38.039Z,20.52
2023-03-19T22:03:11.029Z,19.75
2023-03-19T22:05:37.993Z,19.30
2023-03-19T22:08:11.050Z,20.60
2023-03-19T22:10:45.036Z,20.58
2023-03-19T22:13:29.115Z,21.77
2023-03-19T22:16:04.065Z,19.75
2023-03-19T22:18:30.666Z,19.65
2023-03-19T22:21:04.038Z,21.05
2023-03-19T22:23:30.746Z,21.40
2023-03-19T22:25:57.408Z,21.23
2023-03-19T22:28:39.041Z,20.65
2023-03-19T22:31:06.158Z,20.27
2023-03-19T22:33:39.067Z,20.75
2023-03-19T22:36:06.104Z,18.55
2023-03-19T22:38:39.079Z,21.13
2023-03-19T22:41:17.209Z,20.23
2023-03-19T22:43:52.023Z,20.02
2023-03-19T22:46:25.952Z,20.13
2023-03-19T22:48:59.001Z,19.80
2023-03-19T22:51:27.655Z,20.02
2023-03-19T22:54:02.001Z,20.13
2023-03-19T22:56:28.594Z,19.15
2023-03-19T22:59:03.103Z,19.35
2023-03-19T23:01:45.147Z,18.30
2023-03-19T23:04:27.067Z,19.65
2023-03-19T23:06:55.629Z,19.90
2023-03-19T23:09:38.093Z,18.77
2023-03-19T23:12:05.861Z,19.17
2023-03-19T23:14:39.151Z,18.02
2023-03-19T23:17:19.757Z,20.08
2023-03-19T23:19:53.112Z,19.48
2023-03-19T23:22:19.758Z,19.25
2023-03-19T23:24:53.149Z,18.33
2023-03-19T23:27:24.771Z,19.58
2023-03-19T23:29:59.025Z,19.92
2023-03-19T23:32:33.109Z,18.70
2023-03-19T23:35:06.120Z,19.23
2023-03-19T23:37:32.851Z,19.35
2023-03-19T23:40:06.157Z,18.90
2023-03-19T23:42:39.151Z,19.55
2023-03-19T23:45:06.735Z,18.23
2023-03-19T23:47:47.052Z,17.38
2023-03-19T23:50:13.896Z,17.55
2023-03-19T23:52:47.033Z,17.63
2023-03-19T23:55:13.728Z,18.48
2023-03-19T23:57:47.098Z,17.58
